createdAt,value
2022-11-22T00:00:13.358Z,6.90
2022-11-22T00:01:13.286Z,6.80
2022-11-22T00:02:13.505Z,7.00
2022-11-22T00:03:13.429Z,7.10
2022-11-22T00:04:13.434Z,6.90
2022-11-22T00:05:13.738Z,6.90
2022-11-22T00:06:13.685Z,6.80
2022-11-22T00:07:13.788Z,7.00
2022-11-22T00:08:14.186Z,7.10
2022-11-22T00:09:13.540Z,7.10
2022-11-22T00:10:13.658Z,7.10
2022-11-22T00:11:14.723Z,7.00
2022-11-22T00:12:13.647Z,7.00
2022-11-22T00:13:13.523Z,6.90
2022-11-22T00:14:13.843Z,7.00
2022-11-22T00:15:13.997Z,6.90
2022-11-22T00:16:13.975Z,6.90
2022-11-22T00:17:12.814Z,7.10
2022-11-22T00:18:13.895Z,7.10
2022-11-22T00:19:12.796Z,6.80
2022-11-22T00:20:13.709Z,7.00
2022-11-22T00:21:14.140Z,6.90
2022-11-22T00:22:13.250Z,6.90
2022-11-22T00:23:13.255Z,7.00
2022-11-22T00:24:13.160Z,7.30
2022-11-22T00:25:12.991Z,6.90
2022-11-22T00:26:13.042Z,7.10
2022-11-22T00:27:12.928Z,7.10
2022-11-22T00:28:13.424Z,7.20
2022-11-22T00:29:13.320Z,7.10
2022-11-22T00:30:13.310Z,7.00
2022-11-22T00:31:13.493Z,7.10
2022-11-22T00:32:13.800Z,7.10
2022-11-22T00:33:14.198Z,7.10
2022-11-22T00:34:13.622Z,7.20
2022-11-22T00:35:13.662Z,7.20
2022-11-22T00:36:13.698Z,7.40
2022-11-22T00:37:14.149Z,7.20
2022-11-22T00:38:13.329Z,7.10
2022-11-22T00:39:13.592Z,6.90
2022-11-22T00:40:13.627Z,7.10
2022-11-22T00:41:13.777Z,7.00
2022-11-22T00:42:14.024Z,7.10
2022-11-22T00:43:13.252Z,7.10
2022-11-22T00:44:13.357Z,7.30
2022-11-22T00:45:13.280Z,7.30
2022-11-22T00:46:13.535Z,7.00
2022-11-22T00:47:13.698Z,7.30
2022-11-22T00:48:13.617Z,7.30
2022-11-22T00:49:13.494Z,7.30
2022-11-22T00:50:13.597Z,7.30
2022-11-22T00:51:13.706Z,7.20
2022-11-22T00:52:13.535Z,7.20
2022-11-22T00:53:13.751Z,7.20
2022-11-22T00:54:13.783Z,7.10
2022-11-22T00:55:13.702Z,7.10
2022-11-22T00:56:13.657Z,7.30
2022-11-22T00:57:13.716Z,7.20
2022-11-22T00:58:13.758Z,7.30
2022-11-22T00:59:14.050Z,7.20
2022-11-22T01:00:13.155Z,7.10
2022-11-22T01:01:14.566Z,7.20
2022-11-22T01:02:13.550Z,7.10
2022-11-22T01:03:13.602Z,7.30
2022-11-22T01:04:13.433Z,7.40
2022-11-22T01:05:13.333Z,7.20
2022-11-22T01:06:13.229Z,7.20
2022-11-22T01:07:13.375Z,7.30
2022-11-22T01:08:13.384Z,7.60
2022-11-22T01:09:13.253Z,7.40
2022-11-22T01:10:13.326Z,7.40
2022-11-22T01:11:13.507Z,7.50
2022-11-22T01:12:13.658Z,7.30
2022-11-22T01:13:13.702Z,7.40
2022-11-22T01:14:13.831Z,7.50
2022-11-22T01:15:13.672Z,7.50
2022-11-22T01:16:13.531Z,7.30
2022-11-22T01:17:13.460Z,7.40
2022-11-22T01:18:13.444Z,7.20
2022-11-22T01:19:13.585Z,7.00
2022-11-22T01:20:14.136Z,7.40
2022-11-22T01:21:13.078Z,7.30
2022-11-22T01:22:13.005Z,7.40
2022-11-22T01:23:13.083Z,7.40
2022-11-22T01:24:13.071Z,7.30
2022-11-22T01:25:12.960Z,7.40
2022-11-22T01:26:13.069Z,7.20
2022-11-22T01:27:13.478Z,7.30
2022-11-22T01:28:13.596Z,7.10
2022-11-22T01:29:13.921Z,7.20
2022-11-22T01:30:13.080Z,7.30
2022-11-22T01:31:12.965Z,7.30
2022-11-22T01:32:12.987Z,7.10
2022-11-22T01:33:12.984Z,7.20
2022-11-22T01:34:12.978Z,7.20
2022-11-22T01:35:13.053Z,7.30
2022-11-22T01:36:17.987Z,7.60
2022-11-22T01:37:13.039Z,7.30
2022-11-22T01:38:12.943Z,7.20
2022-11-22T01:39:13.276Z,7.20
2022-11-22T01:40:13.604Z,7.10
2022-11-22T01:41:13.609Z,7.00
2022-11-22T01:42:13.554Z,6.90
2022-11-22T01:43:13.418Z,7.00
2022-11-22T01:44:13.536Z,7.10
2022-11-22T01:45:13.514Z,7.00
2022-11-22T01:46:13.458Z,6.80
2022-11-22T01:47:13.372Z,6.70
2022-11-22T01:48:13.480Z,6.80
2022-11-22T01:49:13.418Z,6.90
2022-11-22T01:50:13.337Z,7.00
2022-11-22T01:51:13.403Z,7.00
2022-11-22T01:52:13.672Z,7.30
2022-11-22T01:53:13.589Z,7.30
2022-11-22T01:54:13.814Z,7.10
2022-11-22T01:55:13.719Z,6.90
2022-11-22T01:56:13.590Z,7.00
2022-11-22T01:57:13.466Z,7.00
2022-11-22T01:58:13.691Z,7.00
2022-11-22T01:59:19.573Z,6.90
2022-11-22T02:00:13.448Z,6.90
2022-11-22T02:01:13.655Z,7.10
2022-11-22T02:02:13.694Z,7.30
2022-11-22T02:03:19.016Z,7.00
2022-11-22T02:04:13.044Z,6.80
2022-11-22T02:05:12.929Z,6.80
2022-11-22T02:06:13.356Z,7.00
2022-11-22T02:07:13.451Z,7.20
2022-11-22T02:08:13.679Z,7.00
2022-11-22T02:09:14.042Z,7.00
2022-11-22T02:10:12.919Z,7.10
2022-11-22T02:11:13.175Z,7.10
2022-11-22T02:12:13.454Z,7.10
2022-11-22T02:13:13.329Z,7.10
2022-11-22T02:14:13.577Z,7.00
2022-11-22T02:15:13.439Z,7.00
2022-11-22T02:16:13.373Z,7.00
2022-11-22T02:17:13.332Z,6.90
2022-11-22T02:18:13.369Z,6.90
2022-11-22T02:19:13.440Z,7.00
2022-11-22T02:20:13.337Z,7.20
2022-11-22T02:21:13.403Z,7.30
2022-11-22T02:22:13.500Z,7.10
2022-11-22T02:23:13.703Z,7.30
2022-11-22T02:24:14.178Z,7.10
2022-11-22T02:25:13.042Z,7.00
2022-11-22T02:26:13.114Z,7.10
2022-11-22T02:27:13.122Z,7.10
2022-11-22T02:28:13.477Z,7.30
2022-11-22T02:29:13.734Z,7.30
2022-11-22T02:30:13.645Z,7.40
2022-11-22T02:31:13.517Z,7.10
2022-11-22T02:32:13.321Z,7.20
2022-11-22T02:33:13.350Z,7.20
2022-11-22T02:34:13.543Z,7.30
2022-11-22T02:35:13.687Z,7.30
2022-11-22T02:36:13.941Z,7.30
2022-11-22T02:37:12.950Z,7.40
2022-11-22T02:38:12.844Z,7.30
2022-11-22T02:39:13.749Z,7.10
2022-11-22T02:40:13.699Z,7.30
2022-11-22T02:41:13.914Z,7.30
2022-11-22T02:42:12.998Z,7.10
2022-11-22T02:43:12.937Z,7.10
2022-11-22T02:44:13.036Z,7.50
2022-11-22T02:45:13.160Z,7.40
2022-11-22T02:46:13.090Z,7.20
2022-11-22T02:47:13.265Z,7.30
2022-11-22T02:48:13.161Z,7.30
2022-11-22T02:49:13.503Z,7.60
2022-11-22T02:50:13.514Z,7.60
2022-11-22T02:51:13.461Z,7.40
2022-11-22T02:52:13.642Z,7.60
2022-11-22T02:53:13.560Z,7.40
2022-11-22T02:54:13.722Z,7.20
2022-11-22T02:55:13.821Z,7.40
2022-11-22T02:56:13.906Z,7.60
2022-11-22T02:57:13.221Z,7.50
2022-11-22T02:58:13.464Z,7.40
2022-11-22T02:59:13.263Z,7.40
2022-11-22T03:00:13.187Z,7.30
2022-11-22T03:01:13.133Z,7.20
2022-11-22T03:02:13.086Z,7.30
2022-11-22T03:03:13.154Z,7.30
2022-11-22T03:04:13.489Z,7.60
2022-11-22T03:05:18.714Z,7.50
2022-11-22T03:06:13.739Z,7.50
2022-11-22T03:07:13.618Z,7.30
2022-11-22T03:08:13.902Z,7.40
2022-11-22T03:09:12.702Z,7.40
2022-11-22T03:10:13.649Z,7.30
2022-11-22T03:11:13.553Z,7.40
2022-11-22T03:12:13.474Z,7.40
2022-11-22T03:13:13.387Z,7.40
2022-11-22T03:14:13.294Z,7.40
2022-11-22T03:15:13.195Z,7.30
2022-11-22T03:16:13.411Z,7.20
2022-11-22T03:17:13.584Z,7.20
2022-11-22T03:18:13.668Z,7.40
2022-11-22T03:19:13.888Z,7.20
2022-11-22T03:20:12.793Z,7.30
2022-11-22T03:21:13.838Z,7.20
2022-11-22T03:22:13.743Z,7.40
2022-11-22T03:23:13.749Z,7.20
2022-11-22T03:24:13.836Z,7.10
2022-11-22T03:25:13.792Z,7.10
2022-11-22T03:26:13.869Z,7.30
2022-11-22T03:27:14.254Z,7.20
2022-11-22T03:28:13.501Z,7.30
2022-11-22T03:29:13.489Z,7.20
2022-11-22T03:30:13.524Z,7.40
2022-11-22T03:31:13.684Z,7.30
2022-11-22T03:32:13.863Z,7.60
2022-11-22T03:33:13.922Z,7.60
2022-11-22T03:34:13.069Z,7.60
2022-11-22T03:35:12.975Z,7.40
2022-11-22T03:36:12.981Z,7.40
2022-11-22T03:37:13.127Z,7.50
2022-11-22T03:38:12.953Z,7.50
2022-11-22T03:39:12.945Z,7.50
2022-11-22T03:40:12.926Z,7.40
2022-11-22T03:41:13.236Z,7.40
2022-11-22T03:42:16.817Z,7.40
2022-11-22T03:43:13.409Z,7.40
2022-11-22T03:44:13.335Z,7.60
2022-11-22T03:45:13.262Z,7.50
2022-11-22T03:46:13.552Z,7.50
2022-11-22T03:47:13.484Z,7.40
2022-11-22T03:48:13.305Z,7.40
2022-11-22T03:49:13.193Z,7.30
2022-11-22T03:50:12.991Z,7.30
2022-11-22T03:51:12.853Z,7.40
2022-11-22T03:52:13.907Z,7.30
2022-11-22T03:53:13.201Z,7.50
2022-11-22T03:54:13.103Z,7.40
2022-11-22T03:55:13.093Z,7.50
2022-11-22T03:56:13.436Z,7.30
2022-11-22T03:57:13.778Z,7.50
2022-11-22T03:58:13.941Z,7.50
2022-11-22T03:59:12.985Z,7.30
2022-11-22T04:00:13.374Z,7.40
2022-11-22T04:01:16.764Z,7.50
2022-11-22T04:02:12.989Z,7.60
2022-11-22T04:03:12.982Z,7.60
2022-11-22T04:04:13.082Z,7.60
2022-11-22T04:05:13.027Z,7.30
2022-11-22T04:06:13.074Z,7.50
2022-11-22T04:07:13.205Z,7.50
2022-11-22T04:08:13.650Z,7.50
2022-11-22T04:09:13.597Z,7.40
2022-11-22T04:10:16.351Z,7.60
2022-11-22T04:11:12.952Z,7.50
2022-11-22T04:12:12.850Z,7.60
2022-11-22T04:13:13.756Z,7.50
2022-11-22T04:14:13.675Z,7.40
2022-11-22T04:15:13.575Z,7.40
2022-11-22T04:16:13.404Z,7.30
2022-11-22T04:17:13.509Z,7.40
2022-11-22T04:18:13.568Z,7.30
2022-11-22T04:19:13.528Z,7.30
2022-11-22T04:20:13.461Z,7.40
2022-11-22T04:21:13.622Z,7.60
2022-11-22T04:22:13.768Z,7.30
2022-11-22T04:23:13.953Z,7.20
2022-11-22T04:24:12.923Z,7.20
2022-11-22T04:25:12.779Z,7.20
2022-11-22T04:26:13.830Z,7.30
2022-11-22T04:27:13.649Z,7.40
2022-11-22T04:28:13.553Z,7.10
2022-11-22T04:29:13.606Z,7.30
2022-11-22T04:30:18.957Z,7.20
2022-11-22T04:31:13.390Z,7.20
2022-11-22T04:32:13.220Z,7.40
2022-11-22T04:33:13.189Z,7.20
2022-11-22T04:34:13.095Z,7.20
2022-11-22T04:35:13.027Z,7.20
2022-11-22T04:36:17.876Z,7.30
2022-11-22T04:37:13.826Z,7.30
2022-11-22T04:38:13.768Z,7.30
2022-11-22T04:39:13.694Z,7.00
2022-11-22T04:40:13.850Z,7.20
2022-11-22T04:41:14.071Z,7.20
2022-11-22T04:42:12.974Z,7.30
2022-11-22T04:43:13.152Z,7.20
2022-11-22T04:44:13.086Z,7.00
2022-11-22T04:45:13.407Z,7.20
2022-11-22T04:46:13.285Z,7.20
2022-11-22T04:47:13.299Z,7.00
2022-11-22T04:48:13.287Z,7.20
2022-11-22T04:49:14.455Z,7.30
2022-11-22T04:50:13.555Z,7.10
2022-11-22T04:51:13.616Z,7.00
2022-11-22T04:52:13.573Z,7.10
2022-11-22T04:53:13.593Z,7.00
2022-11-22T04:54:13.821Z,7.10
2022-11-22T04:55:13.849Z,6.90
2022-11-22T04:56:15.099Z,7.00
2022-11-22T04:57:13.227Z,7.20
2022-11-22T04:58:13.343Z,7.20
2022-11-22T04:59:13.649Z,7.30
2022-11-22T05:00:13.589Z,7.30
2022-11-22T05:01:13.614Z,7.30
2022-11-22T05:02:13.867Z,7.00
2022-11-22T05:03:13.757Z,7.10
2022-11-22T05:04:13.878Z,7.00
2022-11-22T05:05:14.005Z,7.00
2022-11-22T05:06:12.897Z,7.00
2022-11-22T05:07:13.070Z,7.00
2022-11-22T05:08:13.533Z,6.90
2022-11-22T05:09:13.489Z,7.20
2022-11-22T05:10:13.376Z,6.80
2022-11-22T05:11:13.288Z,6.80
2022-11-22T05:12:13.207Z,6.80
2022-11-22T05:13:13.425Z,6.80
2022-11-22T05:14:13.768Z,6.80
2022-11-22T05:15:14.069Z,6.90
2022-11-22T05:16:13.058Z,7.00
2022-11-22T05:17:13.728Z,7.10
2022-11-22T05:18:13.224Z,6.70
2022-11-22T05:19:13.421Z,6.80
2022-11-22T05:20:13.626Z,6.70
2022-11-22T05:21:13.515Z,6.80
2022-11-22T05:22:13.506Z,6.90
2022-11-22T05:23:13.598Z,6.80
2022-11-22T05:24:13.458Z,6.80
2022-11-22T05:25:13.500Z,6.70
2022-11-22T05:26:13.387Z,6.70
2022-11-22T05:27:13.329Z,6.70
2022-11-22T05:28:13.210Z,6.90
2022-11-22T05:29:13.339Z,6.80
2022-11-22T05:30:28.280Z,6.70
2022-11-22T05:31:13.284Z,6.70
2022-11-22T05:32:13.252Z,6.70
2022-11-22T05:33:13.408Z,6.50
2022-11-22T05:34:13.407Z,6.50
2022-11-22T05:35:13.412Z,6.60
2022-11-22T05:36:13.265Z,6.60
2022-11-22T05:37:13.264Z,6.50
2022-11-22T05:38:13.420Z,6.60
2022-11-22T05:39:13.427Z,6.50
2022-11-22T05:40:13.439Z,6.50
2022-11-22T05:41:33.738Z,6.50
2022-11-22T05:42:13.979Z,6.70
2022-11-22T05:43:12.906Z,6.50
2022-11-22T05:44:13.023Z,6.60
2022-11-22T05:45:12.972Z,6.50
2022-11-22T05:46:13.032Z,6.60
2022-11-22T05:47:12.989Z,6.50
2022-11-22T05:48:12.996Z,6.50
2022-11-22T05:49:12.960Z,6.50
2022-11-22T05:50:12.776Z,6.40
2022-11-22T05:51:14.325Z,6.30
2022-11-22T05:52:13.340Z,6.20
2022-11-22T05:53:13.680Z,6.40
2022-11-22T05:54:13.479Z,6.50
2022-11-22T05:55:13.514Z,6.40
2022-11-22T05:56:13.703Z,6.50
2022-11-22T05:57:13.607Z,6.60
2022-11-22T05:58:13.689Z,6.40
2022-11-22T05:59:13.949Z,6.40
2022-11-22T06:00:13.130Z,6.50
2022-11-22T06:01:13.414Z,6.50
2022-11-22T06:02:13.762Z,6.30
2022-11-22T06:03:14.163Z,6.10
2022-11-22T06:04:13.343Z,6.10
2022-11-22T06:05:13.274Z,6.40
2022-11-22T06:06:13.319Z,6.40
2022-11-22T06:07:13.559Z,6.30
2022-11-22T06:08:13.685Z,6.40
2022-11-22T06:09:13.692Z,6.40
2022-11-22T06:10:13.593Z,6.30
2022-11-22T06:11:13.479Z,6.40
2022-11-22T06:12:13.566Z,6.40
2022-11-22T06:13:13.377Z,6.30
2022-11-22T06:14:13.315Z,6.30
2022-11-22T06:15:13.405Z,6.40
2022-11-22T06:16:13.677Z,6.50
2022-11-22T06:17:14.055Z,6.30
2022-11-22T06:18:12.965Z,6.40
2022-11-22T06:19:12.906Z,6.50
2022-11-22T06:20:12.779Z,6.50
2022-11-22T06:21:14.054Z,6.50
2022-11-22T06:22:13.086Z,6.60
2022-11-22T06:23:13.373Z,6.40
2022-11-22T06:24:13.547Z,6.40
2022-11-22T06:25:13.724Z,6.60
2022-11-22T06:26:14.076Z,6.50
2022-11-22T06:27:13.406Z,6.50
2022-11-22T06:28:13.250Z,6.60
2022-11-22T06:29:13.193Z,6.60
2022-11-22T06:30:23.263Z,6.50
2022-11-22T06:31:13.413Z,6.40
2022-11-22T06:32:13.351Z,6.30
2022-11-22T06:33:13.282Z,6.40
2022-11-22T06:34:13.285Z,6.40
2022-11-22T06:35:13.119Z,6.40
2022-11-22T06:36:13.472Z,6.10
2022-11-22T06:37:13.804Z,6.20
2022-11-22T06:38:13.719Z,6.40
2022-11-22T06:39:13.724Z,6.50
2022-11-22T06:40:13.566Z,6.30
2022-11-22T06:41:13.507Z,6.50
2022-11-22T06:42:13.519Z,6.40
2022-11-22T06:43:13.367Z,6.40
2022-11-22T06:44:13.445Z,6.30
2022-11-22T06:45:13.451Z,6.40
2022-11-22T06:46:13.860Z,6.30
2022-11-22T06:47:14.193Z,6.40
2022-11-22T06:48:13.034Z,6.60
2022-11-22T06:49:12.974Z,6.30
2022-11-22T06:50:16.264Z,6.30
2022-11-22T06:51:13.498Z,6.30
2022-11-22T06:52:13.818Z,6.60
2022-11-22T06:53:39.422Z,6.50
2022-11-22T06:54:13.067Z,6.40
2022-11-22T06:55:42.278Z,6.40
2022-11-22T06:56:13.285Z,6.40
2022-11-22T06:57:13.163Z,6.20
2022-11-22T06:58:13.116Z,6.30
2022-11-22T06:59:13.152Z,6.50
2022-11-22T07:00:13.109Z,6.40
2022-11-22T07:01:13.337Z,6.30
2022-11-22T07:02:13.196Z,6.40
2022-11-22T07:03:13.146Z,6.30
2022-11-22T07:04:13.317Z,6.30
2022-11-22T07:05:25.487Z,6.40
2022-11-22T07:06:13.095Z,6.50
2022-11-22T07:07:13.265Z,6.20
2022-11-22T07:08:14.166Z,6.30
2022-11-22T07:09:13.484Z,6.50
2022-11-22T07:10:13.480Z,6.50
2022-11-22T07:11:13.786Z,6.30
2022-11-22T07:12:13.956Z,6.30
2022-11-22T07:13:12.926Z,6.30
2022-11-22T07:14:12.920Z,6.40
2022-11-22T07:15:12.839Z,6.40
2022-11-22T07:16:13.813Z,6.50
2022-11-22T07:17:13.903Z,6.50
2022-11-22T07:18:12.822Z,6.40
2022-11-22T07:19:13.753Z,6.40
2022-11-22T07:20:14.046Z,6.30
2022-11-22T07:21:13.792Z,6.30
2022-11-22T07:22:12.935Z,6.60
2022-11-22T07:23:12.959Z,6.50
2022-11-22T07:24:12.890Z,6.50
2022-11-22T07:25:14.117Z,6.40
2022-11-22T07:26:13.294Z,6.50
2022-11-22T07:27:13.397Z,6.50
2022-11-22T07:28:13.517Z,6.60
2022-11-22T07:29:13.332Z,6.60
2022-11-22T07:30:13.290Z,6.60
2022-11-22T07:31:13.291Z,6.30
2022-11-22T07:32:13.181Z,6.50
2022-11-22T07:33:13.101Z,6.60
2022-11-22T07:34:13.120Z,6.60
2022-11-22T07:35:13.105Z,6.50
2022-11-22T07:36:13.248Z,6.50
2022-11-22T07:37:14.091Z,6.70
2022-11-22T07:38:13.352Z,6.50
2022-11-22T07:39:13.156Z,6.60
2022-11-22T07:40:13.214Z,6.50
2022-11-22T07:41:13.372Z,6.60
2022-11-22T07:42:13.361Z,6.60
2022-11-22T07:43:13.401Z,6.50
2022-11-22T07:44:13.338Z,6.60
2022-11-22T07:45:13.276Z,6.60
2022-11-22T07:46:13.488Z,6.60
2022-11-22T07:47:15.254Z,6.60
2022-11-22T07:48:13.335Z,6.40
2022-11-22T07:49:13.452Z,6.60
2022-11-22T07:50:13.716Z,6.60
2022-11-22T07:51:13.657Z,6.70
2022-11-22T07:52:13.569Z,6.40
2022-11-22T07:53:13.435Z,6.50
2022-11-22T07:54:13.235Z,6.70
2022-11-22T07:55:14.452Z,6.80
2022-11-22T07:56:13.776Z,6.60
2022-11-22T07:57:13.597Z,6.70
2022-11-22T07:58:13.581Z,6.80
2022-11-22T07:59:13.670Z,6.70
2022-11-22T08:00:13.594Z,6.80
2022-11-22T08:01:13.596Z,6.80
2022-11-22T08:02:13.917Z,6.80
2022-11-22T08:03:17.621Z,7.00
2022-11-22T08:04:13.067Z,7.00
2022-11-22T08:05:13.199Z,6.90
2022-11-22T08:06:13.399Z,6.90
2022-11-22T08:07:13.642Z,6.80
2022-11-22T08:08:13.702Z,6.90
2022-11-22T08:09:13.572Z,6.80
2022-11-22T08:10:13.637Z,6.80
2022-11-22T08:11:13.560Z,6.80
2022-11-22T08:12:13.602Z,6.80
2022-11-22T08:13:13.553Z,7.00
2022-11-22T08:15:13.221Z,7.00
2022-11-22T08:16:13.839Z,6.80
2022-11-22T08:17:13.892Z,6.80
2022-11-22T08:18:13.180Z,6.80
2022-11-22T08:19:13.789Z,6.90
2022-11-22T08:20:13.786Z,6.90
2022-11-22T08:21:14.142Z,7.00
2022-11-22T08:22:13.185Z,7.00
2022-11-22T08:23:13.281Z,6.90
2022-11-22T08:24:13.212Z,7.00
2022-11-22T08:25:13.136Z,6.90
2022-11-22T08:26:13.136Z,6.90
2022-11-22T08:27:13.241Z,7.10
2022-11-22T08:28:13.143Z,7.00
2022-11-22T08:29:14.469Z,6.80
2022-11-22T08:30:13.663Z,7.00
2022-11-22T08:31:13.609Z,7.00
2022-11-22T08:32:13.441Z,7.10
2022-11-22T08:33:13.372Z,6.90
2022-11-22T08:34:13.939Z,7.00
2022-11-22T08:35:12.815Z,7.30
2022-11-22T08:36:13.799Z,7.20
2022-11-22T08:37:13.922Z,7.20
2022-11-22T08:38:12.869Z,7.30
2022-11-22T08:39:14.131Z,7.30
2022-11-22T08:40:18.559Z,7.20
2022-11-22T08:41:13.844Z,7.40
2022-11-22T08:42:13.805Z,7.10
2022-11-22T08:43:14.091Z,7.30
2022-11-22T08:44:13.153Z,7.20
2022-11-22T08:45:12.977Z,7.30
2022-11-22T08:46:12.844Z,7.30
2022-11-22T08:47:14.090Z,7.30
2022-11-22T08:48:16.435Z,7.40
2022-11-22T08:49:13.577Z,7.30
2022-11-22T08:50:14.025Z,7.30
2022-11-22T08:51:13.377Z,7.40
2022-11-22T08:52:13.589Z,7.40
2022-11-22T08:53:13.799Z,7.50
2022-11-22T08:54:13.762Z,7.50
2022-11-22T08:55:13.675Z,7.50
2022-11-22T08:56:13.574Z,7.70
2022-11-22T08:57:13.900Z,7.80
2022-11-22T08:58:13.015Z,7.60
2022-11-22T08:59:13.063Z,7.70
2022-11-22T09:00:13.232Z,7.70
2022-11-22T09:01:13.327Z,7.70
2022-11-22T09:02:13.428Z,7.80
2022-11-22T09:03:13.437Z,7.80
2022-11-22T09:04:13.634Z,7.80
2022-11-22T09:05:14.027Z,7.70
2022-11-22T09:08:26.612Z,7.70
2022-11-22T09:09:36.990Z,7.90
2022-11-22T09:10:12.943Z,8.00
2022-11-22T09:11:12.833Z,7.60
2022-11-22T09:12:13.837Z,7.90
2022-11-22T09:13:13.730Z,7.80
2022-11-22T09:14:13.950Z,7.80
2022-11-22T09:15:12.903Z,7.90
2022-11-22T09:16:13.088Z,8.10
2022-11-22T09:17:17.559Z,7.80
2022-11-22T09:18:13.375Z,8.00
2022-11-22T09:19:13.349Z,7.90
2022-11-22T09:20:13.352Z,8.10
2022-11-22T09:21:13.261Z,8.20
2022-11-22T09:22:13.214Z,8.00
2022-11-22T09:23:13.120Z,8.00
2022-11-22T09:24:13.410Z,7.80
2022-11-22T09:25:13.741Z,8.00
2022-11-22T09:26:13.689Z,8.10
2022-11-22T09:27:13.613Z,8.00
2022-11-22T09:28:13.854Z,8.10
2022-11-22T09:29:13.728Z,7.90
2022-11-22T09:30:13.670Z,8.20
2022-11-22T09:31:13.551Z,8.20
2022-11-22T09:32:13.623Z,8.80
2022-11-22T09:33:13.766Z,9.80
2022-11-22T09:34:13.827Z,9.60
2022-11-22T09:35:13.719Z,10.10
2022-11-22T09:36:14.089Z,10.50
2022-11-22T09:37:13.291Z,10.30
2022-11-22T09:38:13.226Z,11.20
2022-11-22T09:39:13.520Z,11.40
2022-11-22T09:40:13.450Z,11.20
2022-11-22T09:41:13.689Z,11.00
2022-11-22T09:42:13.787Z,11.10
2022-11-22T09:43:14.142Z,11.00
2022-11-22T09:44:13.451Z,11.10
2022-11-22T09:45:13.331Z,11.30
2022-11-22T09:46:13.500Z,10.50
2022-11-22T09:47:14.583Z,10.70
2022-11-22T09:48:13.721Z,10.10
2022-11-22T09:49:13.672Z,10.10
2022-11-22T09:50:13.654Z,10.60
2022-11-22T09:51:13.674Z,10.90
2022-11-22T09:52:13.868Z,10.40
2022-11-22T09:53:13.764Z,10.80
2022-11-22T09:54:13.671Z,11.00
2022-11-22T09:55:13.587Z,10.90
2022-11-22T09:56:13.501Z,9.90
2022-11-22T09:57:13.584Z,10.50
2022-11-22T09:58:13.431Z,10.90
2022-11-22T09:59:13.515Z,11.00
2022-11-22T10:00:13.738Z,10.10
2022-11-22T10:01:13.648Z,10.10
2022-11-22T10:02:18.580Z,10.90
2022-11-22T10:03:13.464Z,11.50
2022-11-22T10:04:13.472Z,11.20
2022-11-22T10:05:13.384Z,10.20
2022-11-22T10:06:13.247Z,9.30
2022-11-22T10:07:13.688Z,8.80
2022-11-22T10:08:13.745Z,9.10
2022-11-22T10:09:13.997Z,9.10
2022-11-22T10:10:13.069Z,9.50
2022-11-22T10:11:13.293Z,9.00
2022-11-22T10:12:13.388Z,8.60
2022-11-22T10:13:13.664Z,8.60
2022-11-22T10:14:14.024Z,8.60
2022-11-22T10:15:13.013Z,8.60
2022-11-22T10:16:13.208Z,9.50
2022-11-22T10:17:13.312Z,10.40
2022-11-22T10:18:13.445Z,10.80
2022-11-22T10:19:13.913Z,10.50
2022-11-22T10:20:13.013Z,9.00
2022-11-22T10:21:12.914Z,9.10
2022-11-22T10:22:12.857Z,9.30
2022-11-22T10:23:13.795Z,10.90
2022-11-22T10:24:13.865Z,11.30
2022-11-22T10:25:13.714Z,11.30
2022-11-22T10:26:13.754Z,11.10
2022-11-22T10:27:13.571Z,10.20
2022-11-22T10:28:13.453Z,9.60
2022-11-22T10:29:33.426Z,9.40
2022-11-22T10:30:13.332Z,9.80
2022-11-22T10:32:19.090Z,10.10
2022-11-22T10:33:38.824Z,11.40
2022-11-22T10:34:13.482Z,11.70
2022-11-22T10:35:13.488Z,10.90
2022-11-22T10:36:13.313Z,11.50
2022-11-22T10:37:13.262Z,9.80
2022-11-22T10:38:13.643Z,8.90
2022-11-22T10:39:13.493Z,9.40
2022-11-22T10:40:13.419Z,9.20
2022-11-22T10:41:13.320Z,9.30
2022-11-22T10:42:13.331Z,8.70
2022-11-22T10:43:13.262Z,8.70
2022-11-22T10:44:13.466Z,8.30
2022-11-22T10:45:13.350Z,8.50
2022-11-22T10:46:13.520Z,8.60
2022-11-22T10:47:13.712Z,8.30
2022-11-22T10:48:13.967Z,8.50
2022-11-22T10:49:12.896Z,8.60
2022-11-22T10:50:13.938Z,8.80
2022-11-22T10:51:12.862Z,8.60
2022-11-22T10:52:13.901Z,8.80
2022-11-22T10:53:12.832Z,8.60
2022-11-22T10:54:13.889Z,8.70
2022-11-22T10:55:13.898Z,8.60
2022-11-22T10:56:12.805Z,8.70
2022-11-22T10:57:13.903Z,8.40
2022-11-22T10:58:13.020Z,8.30
2022-11-22T10:59:13.063Z,8.50
2022-11-22T11:00:13.267Z,8.70
2022-11-22T11:01:13.237Z,8.30
2022-11-22T11:02:13.152Z,8.70
2022-11-22T11:03:13.140Z,8.60
2022-11-22T11:04:14.200Z,7.90
2022-11-22T11:05:18.265Z,8.10
2022-11-22T11:06:38.090Z,8.40
2022-11-22T11:07:13.602Z,8.10
2022-11-22T11:08:38.963Z,8.60
2022-11-22T11:10:21.606Z,8.60
2022-11-22T11:11:13.993Z,8.40
2022-11-22T11:12:13.054Z,8.40
2022-11-22T11:13:13.194Z,9.90
2022-11-22T11:14:13.137Z,10.50
2022-11-22T11:15:13.044Z,10.10
2022-11-22T11:16:13.379Z,10.70
2022-11-22T11:17:13.581Z,12.10
2022-11-22T11:18:13.538Z,12.40
2022-11-22T11:19:25.322Z,11.30
2022-11-22T11:20:13.459Z,10.10
2022-11-22T11:21:13.481Z,10.50
2022-11-22T11:22:13.823Z,10.10
2022-11-22T11:23:22.247Z,9.60
2022-11-22T11:24:13.269Z,9.90
2022-11-22T11:25:18.772Z,9.50
2022-11-22T11:26:13.845Z,9.40
2022-11-22T11:27:14.053Z,9.50
2022-11-22T11:28:13.550Z,9.70
2022-11-22T11:29:13.547Z,10.10
2022-11-22T11:30:13.756Z,9.40
2022-11-22T11:31:13.967Z,8.90
2022-11-22T11:32:13.079Z,9.00
2022-11-22T11:33:13.254Z,9.20
2022-11-22T11:34:13.585Z,9.20
2022-11-22T11:35:14.242Z,9.70
2022-11-22T11:36:13.753Z,9.60
2022-11-22T11:37:14.232Z,9.40
2022-11-22T11:38:13.842Z,9.40
2022-11-22T11:39:14.067Z,9.40
2022-11-22T11:40:13.372Z,9.60
2022-11-22T11:41:13.549Z,9.80
2022-11-22T11:42:13.673Z,9.40
2022-11-22T11:43:13.740Z,9.70
2022-11-22T11:44:14.155Z,9.00
2022-11-22T11:45:36.075Z,8.70
2022-11-22T11:46:13.634Z,9.70
2022-11-22T11:47:13.725Z,10.80
2022-11-22T11:48:14.084Z,10.30
2022-11-22T11:49:13.209Z,10.00
2022-11-22T11:50:53.597Z,9.30
2022-11-22T11:51:13.931Z,9.30
2022-11-22T11:52:13.040Z,9.40
2022-11-22T11:53:13.444Z,8.90
2022-11-22T11:54:41.354Z,9.00
2022-11-22T11:55:13.815Z,8.90
2022-11-22T11:56:14.211Z,9.00
2022-11-22T11:57:18.424Z,9.10
2022-11-22T11:58:16.280Z,9.20
2022-11-22T11:59:14.244Z,8.90
2022-11-22T12:00:13.432Z,9.40
2022-11-22T12:01:13.296Z,9.70
2022-11-22T12:02:13.536Z,9.00
2022-11-22T12:03:13.519Z,9.30
2022-11-22T12:05:13.102Z,10.60
2022-11-22T12:06:13.056Z,10.40
2022-11-22T12:07:26.152Z,9.90
2022-11-22T12:08:18.256Z,9.30
2022-11-22T12:09:27.049Z,9.40
2022-11-22T12:10:13.603Z,9.50
2022-11-22T12:11:19.005Z,9.30
2022-11-22T12:12:13.737Z,9.50
2022-11-22T12:13:13.839Z,9.80
2022-11-22T12:14:20.296Z,9.60
2022-11-22T12:15:19.002Z,9.30
2022-11-22T12:16:14.565Z,9.80
2022-11-22T12:17:18.875Z,9.70
2022-11-22T12:18:19.106Z,9.70
2022-11-22T12:19:23.184Z,9.40
2022-11-22T12:20:14.156Z,9.20
2022-11-22T12:21:13.433Z,9.30
2022-11-22T12:22:24.232Z,9.40
2022-11-22T12:23:13.696Z,8.90
2022-11-22T12:24:41.300Z,9.40
2022-11-22T12:25:31.419Z,9.80
2022-11-22T12:26:13.799Z,9.60
2022-11-22T12:27:51.858Z,9.40
2022-11-22T12:28:13.570Z,9.40
2022-11-22T12:29:13.665Z,10.20
2022-11-22T12:30:39.255Z,10.70
2022-11-22T12:31:15.520Z,10.70
2022-11-22T12:32:14.196Z,10.40
2022-11-22T12:33:13.287Z,10.20
2022-11-22T12:34:13.541Z,10.70
2022-11-22T12:35:13.633Z,11.30
2022-11-22T12:36:13.755Z,11.40
2022-11-22T12:37:18.129Z,11.40
2022-11-22T12:38:13.049Z,11.50
2022-11-22T12:39:13.389Z,11.60
2022-11-22T12:40:25.194Z,11.50
2022-11-22T12:41:13.062Z,10.90
2022-11-22T12:43:13.953Z,11.50
2022-11-22T12:44:13.008Z,11.20
2022-11-22T12:45:13.105Z,11.30
2022-11-22T12:46:13.497Z,11.20
2022-11-22T12:47:13.420Z,10.80
2022-11-22T12:48:13.759Z,11.50
2022-11-22T12:50:00.033Z,11.40
2022-11-22T12:50:16.071Z,11.00
2022-11-22T12:51:13.454Z,11.10
2022-11-22T12:52:13.552Z,11.30
2022-11-22T12:53:13.676Z,11.20
2022-11-22T12:54:13.742Z,10.90
2022-11-22T12:56:13.819Z,9.90
2022-11-22T12:57:13.874Z,10.10
2022-11-22T12:58:13.842Z,9.50
2022-11-22T12:59:13.793Z,9.60
2022-11-22T13:00:18.795Z,9.50
2022-11-22T13:01:14.339Z,9.50
2022-11-22T13:03:22.592Z,10.30
2022-11-22T13:04:13.433Z,10.30
2022-11-22T13:05:18.442Z,10.20
2022-11-22T13:06:14.185Z,10.60
2022-11-22T13:07:13.463Z,10.80
2022-11-22T13:08:13.762Z,10.80
2022-11-22T13:09:22.403Z,10.70
2022-11-22T13:10:13.563Z,10.20
2022-11-22T13:11:13.502Z,10.30
2022-11-22T13:12:13.836Z,10.50
2022-11-22T13:13:14.182Z,10.50
2022-11-22T13:14:17.750Z,10.10
2022-11-22T13:15:13.591Z,11.10
2022-11-22T13:16:13.715Z,11.70
2022-11-22T13:17:13.655Z,11.70
2022-11-22T13:18:13.771Z,12.20
2022-11-22T13:19:13.882Z,11.50
2022-11-22T13:20:12.803Z,10.90
2022-11-22T13:21:13.730Z,11.50
2022-11-22T13:22:19.162Z,10.90
2022-11-22T13:23:13.350Z,11.00